Plum Branch, SC (29845)

3:08 AM EDT on August 31, 2014 (GMT -0400)
Plum Branch South Carolina | Change Station
CLOSE
Current Station
Personal Weather Station
Location: Plum Branch, SC
Elevation: 354 ft
Nearby Weather Stations

Elev 354 ft 33.81 °N, 82.31 °W | Updated 8 seconds ago

Partly Cloudy
Partly Cloudy
79.9 °F
Feels Like 78 °F
N
4.7
Wind Variable Wind from NE
Gusts 5.4 mph

Today
High -- | Low -- °F
--% Chance of Precip.
Yesterday
High -- | Low -- °F
Precip. -- in
7:02 AM 7:55 PM
Waxing Crescent, 28% visible
Pressure 30.18 in
Visibility 10.0 miles
Clouds Mostly Cloudy 6000 ft
Mostly Cloudy 7500 ft
Heat Index 78 °F
Dew Point -16 °F
Humidity 2%
Rainfall 0.00 in
Snow Depth Not available.
UV 0 out of 12
Pollen 8.90 out of 12
Air Quality Not available.
Flu Activity Not available.
METAR KHQU 310635Z AUTO 17003KT 10SM BKN060 BKN075 27/25 A3018 RMK AO1 T02660246

More Conditions Fewer Conditions

Pressure 30.18 in
Visibility 10.0 miles
Clouds Mostly Cloudy 6000 ft
Mostly Cloudy 7500 ft
Heat Index 78 °F
Dew Point -16 °F
Humidity 2%
Rainfall 0.00 in
Snow Depth Not available.
UV 0 out of 12
Pollen 8.90 out of 12
Air Quality Not available.
Flu Activity Not available.
METAR KHQU 310635Z AUTO 17003KT 10SM BKN060 BKN075 27/25 A3018 RMK AO1 T02660246

More Conditions Fewer Conditions

10-Day Weather Forecast

Almanac

Astronomy

Aug. 31, 2014 Rise Set
Actual Time 7:02 AM EDT 7:55 PM EDT
Civil Twilight 6:36 AM EDT 8:21 PM EDT
Nautical Twilight 6:06 AM EDT 8:51 PM EDT
Astronomical Twilight 5:35 AM EDT 9:22 PM EDT
Moon 12:30 PM EDT 11:27 PM EDT
Length of Visible Light 13h 44m
Length of Day
12h 53m
Tomorrow will be 2m 0s shorter.
Waxing Crescent, 28% of the Moon is Illuminated
Today
Waxing Crescent
Sep 2
First Quarter
Sep 8
Full
Sep 15
Last Quarter
Sep 24
New

Today's Extremes

State Highs State Lows

Community

WunderPhotos

Upload Photos

1,748,806 photos uploaded!

Nearby

Air Quality

  Air Quality AQ Index Pollutant
Yesterday Good
PM2.5
Yesterday Good
OZONE
Sunday Good
OZONE

Snow Depth

Station Depth Elevation
No new snow has been reported.

Earthquake Activity

City Distance Mag. Time & Date
No recent earthquake activity has been reported nearby.
Minimum magnitude displayed is 2.5.

Coastal Water Temperatures

Place Temperature
No Stations Reporting

Nearby Weather Stations